Terminal Aerodrome Forecast
Issued by NWS

Home | Current Version | Previous Version | Text Only | Print | Product List | Glossary On
Versions: 1 2 3 4 5 6 7 8 9 10 11 12 13 14 15 16 17 18 19 20 21 22 23 24
000
FTUS45 KPSR 061128
TAFSDL
TAF
KSDL 061128Z 0612/0712 00000KT P6SM SCT140 OVC200
     FM061600 15005KT P6SM FEW050 SCT150 OVC180
     FM062000 23005KT P6SM SCT040 SCT130 OVC180
     FM070300 VRB03KT P6SM SCT040 SCT130 BKN200=

USA.gov is the U.S. government's official web portal to all federal, state and local government web resources and services.